createdAt,value
2019-01-19T00:04:39.999Z,0.03
2019-01-19T00:13:52.646Z,-0.10
2019-01-19T00:17:00.818Z,-0.15
2019-01-19T00:20:08.875Z,-0.15
2019-01-19T00:23:18.616Z,-0.17
2019-01-19T00:26:26.690Z,-0.15
2019-01-19T00:32:36.368Z,-0.14
2019-01-19T00:41:48.407Z,-0.14
2019-01-19T00:44:56.867Z,-0.16
2019-01-19T00:48:06.580Z,-0.17
2019-01-19T01:00:13.844Z,-0.18
2019-01-19T01:09:41.134Z,-0.31
2019-01-19T01:13:10.505Z,-0.33
2019-01-19T01:16:18.662Z,-0.36
2019-01-19T01:28:33.788Z,-0.43
2019-01-19T01:31:43.224Z,-0.46
2019-01-19T01:37:47.125Z,-0.45
2019-01-19T01:40:55.469Z,-0.47
2019-01-19T01:44:05.191Z,-0.49
2019-01-19T01:47:13.756Z,-0.47
2019-01-19T01:50:23.131Z,-0.48
2019-01-19T01:55:54.779Z,-0.50
2019-01-19T01:59:04.193Z,-0.52
2019-01-19T02:05:46.860Z,-0.55
2019-01-19T02:08:56.257Z,-0.56
2019-01-19T02:12:04.754Z,-0.56
2019-01-19T02:15:14.394Z,-0.57
2019-01-19T02:36:28.358Z,-0.57
2019-01-19T02:39:36.589Z,-0.57
2019-01-19T02:42:46.043Z,-0.58
2019-01-19T02:49:28.641Z,-0.55
2019-01-19T03:04:44.732Z,-0.59
2019-01-19T03:07:54.716Z,-0.62
2019-01-19T03:11:04.638Z,-0.65
2019-01-19T03:14:14.263Z,-0.66
2019-01-19T03:23:58.980Z,-0.76
2019-01-19T03:42:09.368Z,-0.81
2019-01-19T04:04:05.149Z,-0.80
2019-01-19T04:07:06.660Z,-0.80
2019-01-19T04:10:16.148Z,-0.78
2019-01-19T04:19:49.894Z,-0.77
2019-01-19T04:22:59.485Z,-0.76
2019-01-19T04:31:20.474Z,-0.78
2019-01-19T04:39:11.594Z,-0.75
2019-01-19T04:41:41.259Z,-0.73
2019-01-19T04:44:10.600Z,-0.71
2019-01-19T04:46:40.206Z,-0.71
2019-01-19T04:49:10.222Z,-0.71
2019-01-19T04:51:39.572Z,-0.71
2019-01-19T04:54:09.222Z,-0.70
2019-01-19T04:56:38.581Z,-0.69
2019-01-19T04:59:08.478Z,-0.68
2019-01-19T05:01:38.141Z,-0.67
2019-01-19T05:04:26.832Z,-0.67
2019-01-19T05:06:56.216Z,-0.66
2019-01-19T05:09:34.570Z,-0.67
2019-01-19T05:12:16.920Z,-0.69
2019-01-19T05:14:46.373Z,-0.69
2019-01-19T05:17:15.722Z,-0.71
2019-01-19T05:19:45.355Z,-0.72
2019-01-19T05:22:14.699Z,-0.72
2019-01-19T05:24:44.339Z,-0.71
2019-01-19T05:27:14.585Z,-0.72
2019-01-19T05:29:56.226Z,-0.70
2019-01-19T05:35:46.623Z,-0.69
2019-01-19T05:38:16.508Z,-0.69
2019-01-19T05:40:46.482Z,-0.70
2019-01-19T05:43:18.926Z,-0.70
2019-01-19T05:45:48.443Z,-0.68
2019-01-19T05:48:17.782Z,-0.68
2019-01-19T05:50:47.372Z,-0.68
2019-01-19T05:53:16.713Z,-0.65
2019-01-19T05:58:41.591Z,-0.63
2019-01-19T06:01:11.345Z,-0.63
2019-01-19T06:03:40.733Z,-0.65
2019-01-19T06:06:10.514Z,-0.67
2019-01-19T06:08:39.836Z,-0.70
2019-01-19T06:11:09.369Z,-0.73
2019-01-19T06:13:39.039Z,-0.75
2019-01-19T06:16:08.515Z,-0.77
2019-01-19T06:24:14.953Z,-0.81
2019-01-19T06:26:44.418Z,-0.81
2019-01-19T06:29:14.758Z,-0.79
2019-01-19T06:31:44.814Z,-0.78
2019-01-19T06:34:14.738Z,-0.79
2019-01-19T06:36:44.392Z,-0.80
2019-01-19T06:48:21.754Z,-0.86
2019-01-19T06:50:51.691Z,-0.90
2019-01-19T06:53:21.338Z,-0.91
2019-01-19T06:55:50.673Z,-0.92
2019-01-19T06:58:20.623Z,-0.93
2019-01-19T07:00:49.965Z,-0.95
2019-01-19T07:03:19.643Z,-0.94
2019-01-19T07:05:48.979Z,-0.95
2019-01-19T07:08:20.254Z,-0.99
2019-01-19T07:11:08.754Z,-1.00
2019-01-19T07:13:38.523Z,-1.01
2019-01-19T07:16:07.859Z,-1.01
2019-01-19T07:18:37.504Z,-1.03
2019-01-19T07:21:07.181Z,-1.03
2019-01-19T07:23:36.543Z,-1.03
2019-01-19T07:26:25.019Z,-1.02
2019-01-19T07:28:54.495Z,-1.02
2019-01-19T07:31:24.145Z,-1.02
2019-01-19T07:33:53.654Z,-1.02
2019-01-19T07:36:23.005Z,-1.01
2019-01-19T07:38:52.514Z,-1.00
2019-01-19T07:41:21.872Z,-0.97
2019-01-19T07:47:26.636Z,-0.93
2019-01-19T07:49:56.034Z,-0.89
2019-01-19T07:52:45.069Z,-0.84
2019-01-19T07:58:35.622Z,-0.78
2019-01-19T08:04:00.907Z,-0.75
2019-01-19T08:06:30.561Z,-0.72
2019-01-19T08:11:56.180Z,-0.64
2019-01-19T08:14:25.805Z,-0.60
2019-01-19T08:16:55.458Z,-0.55
2019-01-19T08:19:24.959Z,-0.50
2019-01-19T08:21:54.296Z,-0.47
2019-01-19T08:24:24.157Z,-0.47
2019-01-19T08:26:53.741Z,-0.37
2019-01-19T08:29:23.078Z,-0.31
2019-01-19T08:31:52.662Z,-0.25
2019-01-19T08:34:22.308Z,-0.14
2019-01-19T08:36:51.813Z,-0.02
2019-01-19T08:39:21.455Z,0.11
2019-01-19T08:41:50.802Z,0.18
2019-01-19T08:44:20.157Z,0.27
2019-01-19T08:46:50.157Z,0.35
2019-01-19T08:49:19.784Z,0.47
2019-01-19T08:51:49.124Z,0.60
2019-01-19T08:54:19.009Z,0.79
2019-01-19T08:56:49.032Z,1.07
2019-01-19T08:59:18.897Z,1.49
2019-01-19T09:01:48.568Z,1.97
2019-01-19T09:04:18.166Z,2.44
2019-01-19T09:06:48.080Z,2.70
2019-01-19T09:09:17.729Z,2.75
2019-01-19T09:11:47.071Z,2.75
2019-01-19T09:14:17.039Z,2.74
2019-01-19T09:16:46.386Z,2.76
2019-01-19T09:19:16.009Z,2.83
2019-01-19T09:21:45.936Z,2.87
2019-01-19T09:27:37.512Z,3.14
2019-01-19T09:30:26.198Z,3.14
2019-01-19T09:32:55.831Z,3.80
2019-01-19T09:35:25.455Z,3.80
2019-01-19T09:37:54.956Z,4.05
2019-01-19T09:40:24.355Z,4.40
2019-01-19T09:42:53.887Z,4.79
2019-01-19T09:45:23.457Z,5.17
2019-01-19T09:47:53.191Z,5.34
2019-01-19T09:50:23.149Z,5.50
2019-01-19T09:52:52.506Z,5.68
2019-01-19T09:55:22.187Z,5.90
2019-01-19T09:58:04.246Z,6.47
2019-01-19T10:00:37.587Z,6.47
2019-01-19T10:03:15.270Z,6.47
2019-01-19T10:05:57.620Z,6.33
2019-01-19T10:08:27.269Z,6.33
2019-01-19T10:14:26.837Z,6.58
2019-01-19T10:16:56.159Z,6.58
2019-01-19T10:19:25.508Z,6.72
2019-01-19T10:22:14.281Z,6.64
2019-01-19T10:24:56.342Z,6.48
2019-01-19T10:27:25.967Z,6.48
2019-01-19T10:29:55.314Z,6.41
2019-01-19T10:32:25.172Z,6.42
2019-01-19T10:34:56.133Z,6.44
2019-01-19T10:37:25.455Z,6.40
2019-01-19T10:42:50.557Z,6.45
2019-01-19T10:48:49.113Z,5.92
2019-01-19T10:51:19.025Z,5.77
2019-01-19T10:53:48.369Z,5.84
2019-01-19T10:56:17.997Z,5.83
2019-01-19T10:58:47.336Z,5.78
2019-01-19T11:01:16.960Z,5.78
2019-01-19T11:03:46.306Z,5.67
2019-01-19T11:06:15.882Z,5.64
2019-01-19T11:08:45.220Z,5.56
2019-01-19T11:14:18.373Z,5.44
2019-01-19T11:16:48.006Z,5.48
2019-01-19T11:19:17.371Z,5.51
2019-01-19T11:21:46.988Z,5.52
2019-01-19T11:24:16.932Z,5.55
2019-01-19T11:29:55.117Z,6.34
2019-01-19T11:32:24.735Z,6.34
2019-01-19T11:34:54.438Z,6.86
2019-01-19T11:37:24.063Z,6.86
2019-01-19T11:40:05.168Z,6.92
2019-01-19T11:42:34.498Z,6.98
2019-01-19T11:45:16.534Z,6.93
2019-01-19T11:47:58.721Z,6.83
2019-01-19T11:50:42.253Z,6.54
2019-01-19T11:53:11.585Z,6.54
2019-01-19T11:56:00.445Z,5.92
2019-01-19T11:58:30.387Z,5.92
2019-01-19T12:00:59.721Z,5.67
2019-01-19T12:03:42.013Z,5.67
2019-01-19T12:06:11.353Z,5.67
2019-01-19T12:08:40.692Z,5.55
2019-01-19T12:11:10.312Z,5.52
2019-01-19T12:13:39.665Z,5.52
2019-01-19T12:16:08.982Z,5.56
2019-01-19T12:18:40.253Z,5.57
2019-01-19T12:21:30.136Z,5.55
2019-01-19T12:23:59.491Z,5.43
2019-01-19T12:26:28.817Z,5.37
2019-01-19T12:28:58.482Z,5.38
2019-01-19T12:34:28.770Z,5.41
2019-01-19T12:36:58.107Z,5.54
2019-01-19T12:39:27.712Z,5.71
2019-01-19T12:41:57.034Z,5.81
2019-01-19T12:44:26.737Z,5.91
2019-01-19T12:46:57.066Z,6.02
2019-01-19T12:49:32.818Z,6.14
2019-01-19T12:55:17.396Z,6.36
2019-01-19T12:57:53.833Z,6.56
2019-01-19T13:00:43.125Z,6.56
2019-01-19T13:03:12.727Z,6.62
2019-01-19T13:08:55.131Z,6.68
2019-01-19T13:12:03.552Z,6.69
2019-01-19T13:21:16.299Z,6.49
2019-01-19T13:27:26.627Z,6.56
2019-01-19T13:30:34.688Z,6.59
2019-01-19T13:40:07.282Z,6.58
2019-01-19T13:43:15.322Z,6.58
2019-01-19T13:46:23.389Z,6.58
2019-01-19T13:49:33.369Z,6.51
2019-01-19T13:52:42.774Z,6.51
2019-01-19T13:55:50.781Z,6.43
2019-01-19T13:59:00.452Z,6.36
2019-01-19T14:02:08.741Z,6.26
2019-01-19T14:05:16.798Z,6.23
2019-01-19T14:08:24.852Z,6.14
2019-01-19T14:11:32.912Z,6.04
2019-01-19T14:14:40.956Z,5.96
2019-01-19T14:17:50.430Z,5.90
2019-01-19T14:27:08.906Z,5.27
2019-01-19T14:30:18.492Z,5.04
2019-01-19T14:33:18.765Z,4.81
2019-01-19T14:36:03.141Z,4.68
2019-01-19T14:38:56.888Z,4.66
2019-01-19T14:42:03.835Z,4.71
2019-01-19T14:45:13.814Z,4.72
2019-01-19T14:48:28.115Z,4.65
2019-01-19T14:57:41.593Z,4.45
2019-01-19T15:03:52.571Z,4.10
2019-01-19T15:13:04.736Z,3.95
2019-01-19T15:16:12.905Z,3.93
2019-01-19T15:19:21.713Z,3.86
2019-01-19T15:28:33.628Z,3.71
2019-01-19T15:34:43.823Z,3.48
2019-01-19T15:40:54.909Z,3.33
2019-01-19T15:44:02.969Z,3.27
2019-01-19T15:47:11.007Z,3.19
2019-01-19T15:50:20.387Z,3.09
2019-01-19T15:56:30.704Z,2.95
2019-01-19T15:59:20.955Z,2.90
2019-01-19T16:05:50.252Z,2.82
2019-01-19T16:09:00.230Z,2.74
2019-01-19T16:15:31.967Z,2.62
2019-01-19T16:18:40.028Z,2.54
2019-01-19T16:24:49.691Z,2.29
2019-01-19T16:27:57.737Z,2.21
2019-01-19T16:31:06.130Z,2.18
2019-01-19T16:40:19.104Z,2.03
2019-01-19T16:43:27.397Z,1.98
2019-01-19T16:46:35.700Z,1.90
2019-01-19T16:49:45.105Z,1.87
2019-01-19T16:52:53.788Z,1.82
2019-01-19T16:56:03.326Z,1.77
2019-01-19T16:59:11.667Z,1.76
2019-01-19T17:02:21.122Z,1.74
2019-01-19T17:08:41.049Z,1.73
2019-01-19T17:11:49.105Z,1.70
2019-01-19T17:17:59.045Z,1.59
2019-01-19T17:21:08.812Z,1.46
2019-01-19T17:24:16.857Z,1.35
2019-01-19T17:42:37.987Z,1.23
2019-01-19T17:45:47.364Z,1.22
2019-01-19T17:48:55.940Z,1.19
2019-01-19T17:52:10.991Z,1.14
2019-01-19T17:55:19.029Z,1.03
2019-01-19T17:58:27.363Z,0.94
2019-01-19T18:01:35.712Z,0.88
2019-01-19T18:04:17.971Z,0.81
2019-01-19T18:07:27.360Z,0.80
2019-01-19T18:29:21.227Z,0.55
2019-01-19T18:32:29.294Z,0.53
2019-01-19T18:35:37.331Z,0.47
2019-01-19T18:38:45.392Z,0.45
2019-01-19T18:44:56.789Z,0.48
2019-01-19T18:48:06.554Z,0.44
2019-01-19T18:50:56.745Z,0.42
2019-01-19T18:53:47.470Z,0.37
2019-01-19T19:02:48.476Z,0.37
2019-01-19T19:05:38.837Z,0.36
2019-01-19T19:08:29.276Z,0.35
2019-01-19T19:11:37.377Z,0.35
2019-01-19T19:14:45.429Z,0.33
2019-01-19T19:17:53.529Z,0.32
2019-01-19T19:23:45.481Z,0.26
2019-01-19T19:35:42.320Z,0.12
2019-01-19T19:38:50.385Z,0.12
2019-01-19T19:41:59.043Z,0.13
2019-01-19T19:45:08.938Z,0.08
2019-01-19T19:51:14.534Z,0.03
2019-01-19T19:53:43.881Z,0.04
2019-01-19T19:59:22.312Z,-0.01
2019-01-19T20:01:51.650Z,-0.03
2019-01-19T20:04:21.010Z,-0.05
2019-01-19T20:06:50.609Z,-0.07
2019-01-19T20:09:39.324Z,-0.09
2019-01-19T20:12:08.793Z,-0.08
2019-01-19T20:14:38.679Z,-0.08
2019-01-19T20:20:42.506Z,-0.06
2019-01-19T20:23:11.858Z,-0.07
2019-01-19T20:25:41.194Z,-0.08
2019-01-19T20:28:10.749Z,-0.10
2019-01-19T20:30:40.129Z,-0.09
2019-01-19T20:33:09.709Z,-0.10
2019-01-19T20:35:39.059Z,-0.10
2019-01-19T20:38:08.699Z,-0.11
2019-01-19T20:40:38.033Z,-0.14
2019-01-19T20:43:07.696Z,-0.19
2019-01-19T20:45:38.684Z,-0.21
2019-01-19T20:48:08.298Z,-0.25
2019-01-19T20:50:37.812Z,-0.26
2019-01-19T20:53:26.523Z,-0.28
2019-01-19T20:55:55.863Z,-0.29
2019-01-19T20:58:25.209Z,-0.30
2019-01-19T21:00:54.833Z,-0.32
2019-01-19T21:03:24.239Z,-0.32
2019-01-19T21:05:53.791Z,-0.33
2019-01-19T21:08:23.138Z,-0.32
2019-01-19T21:10:52.769Z,-0.34
2019-01-19T21:13:44.334Z,-0.37
2019-01-19T21:16:13.933Z,-0.38
2019-01-19T21:18:43.528Z,-0.40
2019-01-19T21:21:12.868Z,-0.40
2019-01-19T21:23:42.222Z,-0.39
2019-01-19T21:26:12.056Z,-0.41
2019-01-19T21:28:41.717Z,-0.42
2019-01-19T21:31:13.145Z,-0.42
2019-01-19T21:33:42.797Z,-0.47
2019-01-19T21:36:18.495Z,-0.50
2019-01-19T21:38:47.895Z,-0.54
2019-01-19T21:41:17.235Z,-0.59
2019-01-19T21:43:46.905Z,-0.61
2019-01-19T21:46:17.168Z,-0.64
2019-01-19T21:48:46.815Z,-0.67
2019-01-19T21:51:38.076Z,-0.70
2019-01-19T21:54:07.732Z,-0.71
2019-01-19T21:56:37.366Z,-0.71
2019-01-19T21:59:06.983Z,-0.71
2019-01-19T22:01:37.939Z,-0.72
2019-01-19T22:09:38.011Z,-0.75
2019-01-19T22:12:07.689Z,-0.76
2019-01-19T22:14:37.042Z,-0.76
2019-01-19T22:17:06.384Z,-0.77
2019-01-19T22:19:35.959Z,-0.79
2019-01-19T22:22:26.386Z,-0.80
2019-01-19T22:30:40.906Z,-0.85
2019-01-19T22:38:59.335Z,-0.94
2019-01-19T22:44:31.594Z,-0.96
2019-01-19T22:47:01.391Z,-1.00
2019-01-19T22:49:31.037Z,-1.01
2019-01-19T22:52:00.404Z,-1.04
2019-01-19T22:54:30.043Z,-1.02
2019-01-19T22:56:59.415Z,-1.03
2019-01-19T22:59:29.599Z,-1.06
2019-01-19T23:02:39.186Z,-1.06
2019-01-19T23:05:09.102Z,-1.05
2019-01-19T23:07:38.456Z,-1.06
2019-01-19T23:10:48.182Z,-1.07
2019-01-19T23:13:18.168Z,-1.07
2019-01-19T23:15:47.513Z,-1.09
2019-01-19T23:18:17.414Z,-1.12
2019-01-19T23:20:47.133Z,-1.19
2019-01-19T23:23:17.498Z,-1.17
2019-01-19T23:25:47.101Z,-1.18
2019-01-19T23:28:17.474Z,-1.18
2019-01-19T23:31:06.444Z,-1.20
2019-01-19T23:33:36.029Z,-1.22
2019-01-19T23:36:05.370Z,-1.24
2019-01-19T23:38:35.030Z,-1.24
2019-01-19T23:41:08.917Z,-1.24
2019-01-19T23:43:44.578Z,-1.27
2019-01-19T23:46:14.236Z,-1.29
2019-01-19T23:48:43.579Z,-1.40
2019-01-19T23:51:13.234Z,-1.35
2019-01-19T23:56:53.332Z,-1.36
2019-01-19T23:59:23.623Z,-1.38
